sensor_id;sensor_type;location;lat;lon;timestamp;P1;durP1;ratioP1;P2;durP2;ratioP2
9234;SDS011;4652;42.716;23.218;2022-08-19T00:00:18;7.40;;;6.80;;
9234;SDS011;4652;42.716;23.218;2022-08-19T00:07:04;7.57;;;6.97;;
9234;SDS011;4652;42.716;23.218;2022-08-19T00:13:48;8.20;;;7.50;;
9234;SDS011;4652;42.716;23.218;2022-08-19T00:20:30;7.97;;;7.27;;
9234;SDS011;4652;42.716;23.218;2022-08-19T00:27:12;8.23;;;7.47;;
9234;SDS011;4652;42.716;23.218;2022-08-19T00:33:56;8.43;;;7.73;;
9234;SDS011;4652;42.716;23.218;2022-08-19T00:40:38;8.17;;;7.47;;
9234;SDS011;4652;42.716;23.218;2022-08-19T00:47:20;8.00;;;7.40;;
9234;SDS011;4652;42.716;23.218;2022-08-19T00:54:04;8.03;;;7.33;;
9234;SDS011;4652;42.716;23.218;2022-08-19T01:06:55;8.00;;;7.33;;
9234;SDS011;4652;42.716;23.218;2022-08-19T01:13:38;8.20;;;7.43;;
9234;SDS011;4652;42.716;23.218;2022-08-19T01:20:21;8.67;;;7.87;;
9234;SDS011;4652;42.716;23.218;2022-08-19T01:27:05;8.70;;;8.00;;
9234;SDS011;4652;42.716;23.218;2022-08-19T01:33:48;9.67;;;8.30;;
9234;SDS011;4652;42.716;23.218;2022-08-19T01:40:33;8.53;;;7.83;;
9234;SDS011;4652;42.716;23.218;2022-08-19T01:47:18;8.70;;;7.90;;
9234;SDS011;4652;42.716;23.218;2022-08-19T01:54:00;8.60;;;7.80;;
9234;SDS011;4652;42.716;23.218;2022-08-19T02:00:43;7.87;;;7.23;;
9234;SDS011;4652;42.716;23.218;2022-08-19T02:07:27;8.80;;;8.00;;
9234;SDS011;4652;42.716;23.218;2022-08-19T02:14:09;8.90;;;8.10;;
9234;SDS011;4652;42.716;23.218;2022-08-19T02:20:52;8.27;;;7.57;;
9234;SDS011;4652;42.716;23.218;2022-08-19T02:27:35;8.83;;;8.03;;
9234;SDS011;4652;42.716;23.218;2022-08-19T02:34:18;9.33;;;8.43;;
9234;SDS011;4652;42.716;23.218;2022-08-19T02:41:01;8.50;;;7.57;;
9234;SDS011;4652;42.716;23.218;2022-08-19T02:47:47;8.43;;;7.70;;
9234;SDS011;4652;42.716;23.218;2022-08-19T02:54:29;8.37;;;7.57;;
9234;SDS011;4652;42.716;23.218;2022-08-19T03:01:11;8.67;;;7.97;;
9234;SDS011;4652;42.716;23.218;2022-08-19T03:08:02;8.80;;;8.00;;
9234;SDS011;4652;42.716;23.218;2022-08-19T03:14:45;8.37;;;7.67;;
9234;SDS011;4652;42.716;23.218;2022-08-19T03:21:29;8.87;;;8.00;;
9234;SDS011;4652;42.716;23.218;2022-08-19T03:28:14;8.77;;;8.00;;
9234;SDS011;4652;42.716;23.218;2022-08-19T03:34:56;8.77;;;7.97;;
9234;SDS011;4652;42.716;23.218;2022-08-19T03:41:39;9.17;;;8.27;;
9234;SDS011;4652;42.716;23.218;2022-08-19T03:48:23;8.53;;;7.73;;
9234;SDS011;4652;42.716;23.218;2022-08-19T03:55:06;8.90;;;8.10;;
9234;SDS011;4652;42.716;23.218;2022-08-19T04:01:49;8.50;;;7.70;;
9234;SDS011;4652;42.716;23.218;2022-08-19T04:08:32;9.30;;;8.40;;
9234;SDS011;4652;42.716;23.218;2022-08-19T04:15:14;9.63;;;8.53;;
9234;SDS011;4652;42.716;23.218;2022-08-19T04:21:57;9.00;;;8.30;;
9234;SDS011;4652;42.716;23.218;2022-08-19T04:28:41;9.63;;;8.67;;
9234;SDS011;4652;42.716;23.218;2022-08-19T04:35:23;9.43;;;8.50;;
9234;SDS011;4652;42.716;23.218;2022-08-19T04:42:05;10.57;;;8.70;;
9234;SDS011;4652;42.716;23.218;2022-08-19T04:49:06;8.83;;;8.03;;
9234;SDS011;4652;42.716;23.218;2022-08-19T04:55:49;9.03;;;8.10;;
9234;SDS011;4652;42.716;23.218;2022-08-19T05:02:31;11.80;;;8.73;;
9234;SDS011;4652;42.716;23.218;2022-08-19T05:09:15;11.40;;;9.87;;
9234;SDS011;4652;42.716;23.218;2022-08-19T05:15:58;16.93;;;10.17;;
9234;SDS011;4652;42.716;23.218;2022-08-19T05:22:40;11.73;;;10.53;;
9234;SDS011;4652;42.716;23.218;2022-08-19T05:29:26;12.47;;;10.30;;
9234;SDS011;4652;42.716;23.218;2022-08-19T05:36:09;11.90;;;9.97;;
9234;SDS011;4652;42.716;23.218;2022-08-19T05:42:51;13.87;;;11.20;;
9234;SDS011;4652;42.716;23.218;2022-08-19T05:49:35;12.00;;;10.87;;
9234;SDS011;4652;42.716;23.218;2022-08-19T05:56:17;11.53;;;10.33;;
9234;SDS011;4652;42.716;23.218;2022-08-19T06:03:00;10.73;;;9.60;;
9234;SDS011;4652;42.716;23.218;2022-08-19T06:09:45;10.93;;;9.90;;
9234;SDS011;4652;42.716;23.218;2022-08-19T06:16:28;12.40;;;10.20;;
9234;SDS011;4652;42.716;23.218;2022-08-19T06:23:11;10.35;;;9.07;;
9234;SDS011;4652;42.716;23.218;2022-08-19T06:29:56;18.58;;;8.98;;
9234;SDS011;4652;42.716;23.218;2022-08-19T06:36:41;14.57;;;8.95;;
9234;SDS011;4652;42.716;23.218;2022-08-19T06:43:24;13.10;;;9.50;;
9234;SDS011;4652;42.716;23.218;2022-08-19T06:50:09;15.32;;;8.65;;
9234;SDS011;4652;42.716;23.218;2022-08-19T06:56:52;12.25;;;8.35;;
9234;SDS011;4652;42.716;23.218;2022-08-19T07:06:57;13.18;;;10.45;;
9234;SDS011;4652;42.716;23.218;2022-08-19T07:13:41;9.15;;;7.85;;
9234;SDS011;4652;42.716;23.218;2022-08-19T07:20:23;12.35;;;8.10;;
9234;SDS011;4652;42.716;23.218;2022-08-19T07:27:07;14.00;;;8.07;;
9234;SDS011;4652;42.716;23.218;2022-08-19T07:33:50;9.77;;;7.80;;
9234;SDS011;4652;42.716;23.218;2022-08-19T07:40:35;8.77;;;7.93;;
9234;SDS011;4652;42.716;23.218;2022-08-19T07:47:19;8.85;;;7.90;;
9234;SDS011;4652;42.716;23.218;2022-08-19T07:54:02;10.75;;;8.15;;
9234;SDS011;4652;42.716;23.218;2022-08-19T08:00:45;13.32;;;8.15;;
9234;SDS011;4652;42.716;23.218;2022-08-19T08:07:30;9.40;;;8.50;;
9234;SDS011;4652;42.716;23.218;2022-08-19T08:14:30;9.48;;;8.30;;
9234;SDS011;4652;42.716;23.218;2022-08-19T08:21:15;8.75;;;7.72;;
9234;SDS011;4652;42.716;23.218;2022-08-19T08:27:58;8.73;;;7.90;;
9234;SDS011;4652;42.716;23.218;2022-08-19T08:34:41;9.02;;;6.70;;
9234;SDS011;4652;42.716;23.218;2022-08-19T08:41:26;8.05;;;6.95;;
9234;SDS011;4652;42.716;23.218;2022-08-19T08:48:16;7.40;;;6.55;;
9234;SDS011;4652;42.716;23.218;2022-08-19T08:55:05;6.00;;;5.50;;
9234;SDS011;4652;42.716;23.218;2022-08-19T09:01:51;5.90;;;5.32;;
9234;SDS011;4652;42.716;23.218;2022-08-19T09:08:38;10.70;;;6.38;;
9234;SDS011;4652;42.716;23.218;2022-08-19T09:15:28;5.85;;;5.35;;
9234;SDS011;4652;42.716;23.218;2022-08-19T09:22:15;6.03;;;4.93;;
9234;SDS011;4652;42.716;23.218;2022-08-19T09:28:58;6.30;;;4.47;;
9234;SDS011;4652;42.716;23.218;2022-08-19T09:35:42;4.45;;;4.15;;
9234;SDS011;4652;42.716;23.218;2022-08-19T09:42:24;4.90;;;4.50;;
9234;SDS011;4652;42.716;23.218;2022-08-19T09:49:07;4.22;;;3.92;;
9234;SDS011;4652;42.716;23.218;2022-08-19T09:55:50;5.53;;;4.30;;
9234;SDS011;4652;42.716;23.218;2022-08-19T10:02:32;4.55;;;4.10;;
9234;SDS011;4652;42.716;23.218;2022-08-19T10:09:17;4.97;;;4.22;;
9234;SDS011;4652;42.716;23.218;2022-08-19T10:16:02;4.65;;;4.30;;
9234;SDS011;4652;42.716;23.218;2022-08-19T10:22:46;5.88;;;4.25;;
9234;SDS011;4652;42.716;23.218;2022-08-19T10:29:29;7.30;;;4.90;;
9234;SDS011;4652;42.716;23.218;2022-08-19T10:36:15;5.00;;;4.60;;
9234;SDS011;4652;42.716;23.218;2022-08-19T10:42:59;5.78;;;5.28;;
9234;SDS011;4652;42.716;23.218;2022-08-19T10:49:43;5.60;;;5.10;;
9234;SDS011;4652;42.716;23.218;2022-08-19T10:56:42;5.68;;;4.97;;
9234;SDS011;4652;42.716;23.218;2022-08-19T11:03:35;5.32;;;4.88;;
9234;SDS011;4652;42.716;23.218;2022-08-19T11:10:19;5.78;;;4.65;;
9234;SDS011;4652;42.716;23.218;2022-08-19T11:17:02;5.28;;;4.72;;
9234;SDS011;4652;42.716;23.218;2022-08-19T11:23:46;5.68;;;5.10;;
9234;SDS011;4652;42.716;23.218;2022-08-19T11:30:30;6.85;;;5.28;;
9234;SDS011;4652;42.716;23.218;2022-08-19T11:37:13;5.63;;;4.97;;
9234;SDS011;4652;42.716;23.218;2022-08-19T11:43:55;5.45;;;4.93;;
9234;SDS011;4652;42.716;23.218;2022-08-19T11:50:39;5.80;;;5.30;;
9234;SDS011;4652;42.716;23.218;2022-08-19T11:57:23;5.90;;;5.40;;
9234;SDS011;4652;42.716;23.218;2022-08-19T12:04:05;5.20;;;4.80;;
9234;SDS011;4652;42.716;23.218;2022-08-19T12:10:49;6.43;;;5.35;;
9234;SDS011;4652;42.716;23.218;2022-08-19T12:17:31;8.18;;;5.05;;
9234;SDS011;4652;42.716;23.218;2022-08-19T12:24:16;6.93;;;5.00;;
9234;SDS011;4652;42.716;23.218;2022-08-19T12:31:04;5.80;;;5.10;;
9234;SDS011;4652;42.716;23.218;2022-08-19T13:06:59;5.55;;;4.82;;
9234;SDS011;4652;42.716;23.218;2022-08-19T13:13:46;7.07;;;4.47;;
9234;SDS011;4652;42.716;23.218;2022-08-19T13:20:31;7.68;;;5.05;;
9234;SDS011;4652;42.716;23.218;2022-08-19T13:27:14;8.07;;;4.72;;
9234;SDS011;4652;42.716;23.218;2022-08-19T13:33:56;5.72;;;5.18;;
9234;SDS011;4652;42.716;23.218;2022-08-19T13:40:38;7.38;;;5.43;;
9234;SDS011;4652;42.716;23.218;2022-08-19T13:47:22;5.95;;;5.07;;
9234;SDS011;4652;42.716;23.218;2022-08-19T13:54:04;5.32;;;4.93;;
9234;SDS011;4652;42.716;23.218;2022-08-19T14:00:47;8.98;;;5.68;;
9234;SDS011;4652;42.716;23.218;2022-08-19T14:07:31;7.07;;;5.30;;
9234;SDS011;4652;42.716;23.218;2022-08-19T14:14:13;6.03;;;5.25;;
9234;SDS011;4652;42.716;23.218;2022-08-19T14:20:55;7.60;;;5.30;;
9234;SDS011;4652;42.716;23.218;2022-08-19T14:27:39;7.32;;;5.55;;
9234;SDS011;4652;42.716;23.218;2022-08-19T14:34:22;6.43;;;5.10;;
9234;SDS011;4652;42.716;23.218;2022-08-19T14:41:11;9.05;;;5.88;;
9234;SDS011;4652;42.716;23.218;2022-08-19T14:47:57;7.00;;;5.65;;
9234;SDS011;4652;42.716;23.218;2022-08-19T14:54:40;6.03;;;5.28;;
9234;SDS011;4652;42.716;23.218;2022-08-19T15:01:22;6.53;;;5.93;;
9234;SDS011;4652;42.716;23.218;2022-08-19T15:08:06;6.07;;;5.55;;
9234;SDS011;4652;42.716;23.218;2022-08-19T15:14:49;6.70;;;6.03;;
9234;SDS011;4652;42.716;23.218;2022-08-19T15:21:31;13.43;;;11.65;;
9234;SDS011;4652;42.716;23.218;2022-08-19T15:28:14;7.78;;;7.07;;
9234;SDS011;4652;42.716;23.218;2022-08-19T15:34:56;8.45;;;5.80;;
9234;SDS011;4652;42.716;23.218;2022-08-19T15:41:38;7.30;;;5.93;;
9234;SDS011;4652;42.716;23.218;2022-08-19T15:48:21;8.55;;;6.78;;
9234;SDS011;4652;42.716;23.218;2022-08-19T15:55:04;10.07;;;8.05;;
9234;SDS011;4652;42.716;23.218;2022-08-19T16:01:47;7.53;;;6.82;;
9234;SDS011;4652;42.716;23.218;2022-08-19T16:08:47;8.07;;;7.30;;
9234;SDS011;4652;42.716;23.218;2022-08-19T16:15:29;7.60;;;7.00;;
9234;SDS011;4652;42.716;23.218;2022-08-19T16:22:14;7.35;;;6.63;;
9234;SDS011;4652;42.716;23.218;2022-08-19T16:28:58;8.68;;;6.88;;
9234;SDS011;4652;42.716;23.218;2022-08-19T16:35:41;8.98;;;7.10;;
9234;SDS011;4652;42.716;23.218;2022-08-19T16:42:23;11.13;;;7.57;;
9234;SDS011;4652;42.716;23.218;2022-08-19T16:49:07;10.68;;;9.18;;
9234;SDS011;4652;42.716;23.218;2022-08-19T16:55:50;7.78;;;6.97;;
9234;SDS011;4652;42.716;23.218;2022-08-19T17:02:33;7.95;;;6.88;;
9234;SDS011;4652;42.716;23.218;2022-08-19T17:09:17;8.38;;;6.38;;
9234;SDS011;4652;42.716;23.218;2022-08-19T17:15:59;10.93;;;6.18;;
9234;SDS011;4652;42.716;23.218;2022-08-19T17:22:42;10.73;;;6.57;;
9234;SDS011;4652;42.716;23.218;2022-08-19T17:29:26;7.88;;;6.47;;
9234;SDS011;4652;42.716;23.218;2022-08-19T17:36:09;7.93;;;7.03;;
9234;SDS011;4652;42.716;23.218;2022-08-19T17:42:51;11.98;;;9.88;;
9234;SDS011;4652;42.716;23.218;2022-08-19T17:49:35;7.80;;;6.97;;
9234;SDS011;4652;42.716;23.218;2022-08-19T17:56:17;8.38;;;6.82;;
9234;SDS011;4652;42.716;23.218;2022-08-19T18:03:01;7.70;;;7.00;;
9234;SDS011;4652;42.716;23.218;2022-08-19T18:09:47;14.80;;;7.90;;
9234;SDS011;4652;42.716;23.218;2022-08-19T18:16:31;11.93;;;7.93;;
9234;SDS011;4652;42.716;23.218;2022-08-19T18:23:13;13.20;;;8.10;;
9234;SDS011;4652;42.716;23.218;2022-08-19T18:29:57;11.73;;;8.80;;
9234;SDS011;4652;42.716;23.218;2022-08-19T18:36:39;11.38;;;8.85;;
9234;SDS011;4652;42.716;23.218;2022-08-19T18:43:21;9.55;;;8.52;;
9234;SDS011;4652;42.716;23.218;2022-08-19T18:50:23;8.93;;;8.02;;
9234;SDS011;4652;42.716;23.218;2022-08-19T18:57:04;14.77;;;8.85;;
9234;SDS011;4652;42.716;23.218;2022-08-19T19:06:52;9.73;;;8.05;;
